createdAt,value
2022-07-25T00:02:07.610Z,99.90
2022-07-25T00:04:35.873Z,99.90
2022-07-25T00:07:03.191Z,99.90
2022-07-25T00:09:30.017Z,99.90
2022-07-25T00:11:56.811Z,99.90
2022-07-25T00:14:23.633Z,99.90
2022-07-25T00:16:50.759Z,99.90
2022-07-25T00:19:18.238Z,99.90
2022-07-25T00:21:45.093Z,99.90
2022-07-25T00:24:11.931Z,99.90
2022-07-25T00:26:40.542Z,99.90
2022-07-25T00:29:07.658Z,99.90
2022-07-25T00:31:34.977Z,99.90
2022-07-25T00:34:02.435Z,99.90
2022-07-25T00:36:29.364Z,99.90
2022-07-25T00:38:56.208Z,99.90
2022-07-25T00:41:23.044Z,99.90
2022-07-25T00:43:52.639Z,99.90
2022-07-25T00:46:19.643Z,99.90
2022-07-25T00:48:47.745Z,99.90
2022-07-25T00:51:16.458Z,99.90
2022-07-25T00:53:44.255Z,99.90
2022-07-25T00:56:11.448Z,99.90
2022-07-25T00:58:38.263Z,99.90
2022-07-25T01:01:05.292Z,99.90
2022-07-25T01:03:32.279Z,99.90
2022-07-25T01:05:59.274Z,99.90
2022-07-25T01:08:26.216Z,99.90
2022-07-25T01:10:53.431Z,99.90
2022-07-25T01:13:20.911Z,99.90
2022-07-25T01:15:48.168Z,99.90
2022-07-25T01:18:15.137Z,99.90
2022-07-25T01:20:42.066Z,99.90
2022-07-25T01:23:09.049Z,99.90
2022-07-25T01:25:35.937Z,99.90
2022-07-25T01:28:02.948Z,99.90
2022-07-25T01:30:29.820Z,99.90
2022-07-25T01:32:56.740Z,99.90
2022-07-25T01:35:23.714Z,99.90
2022-07-25T01:37:50.503Z,99.90
2022-07-25T01:40:17.488Z,99.90
2022-07-25T01:42:44.922Z,99.90
2022-07-25T01:45:13.105Z,99.90
2022-07-25T01:47:40.804Z,99.90
2022-07-25T01:50:08.292Z,99.90
2022-07-25T01:52:36.802Z,99.90
2022-07-25T01:55:04.167Z,99.90
2022-07-25T01:57:33.131Z,99.90
2022-07-25T02:00:00.023Z,99.90
2022-07-25T02:02:27.142Z,99.90
2022-07-25T02:04:54.340Z,99.90
2022-07-25T02:07:21.238Z,99.90
2022-07-25T02:09:49.375Z,99.90
2022-07-25T02:12:19.019Z,99.90
2022-07-25T02:14:45.862Z,99.90
2022-07-25T02:17:12.788Z,99.90
2022-07-25T02:19:39.884Z,99.90
2022-07-25T02:22:06.933Z,99.90
2022-07-25T02:24:33.784Z,99.90
2022-07-25T02:27:00.638Z,99.90
2022-07-25T02:29:27.461Z,99.90
2022-07-25T02:31:54.277Z,99.90
2022-07-25T02:34:21.169Z,99.90
2022-07-25T02:36:48.046Z,99.90
2022-07-25T02:39:14.931Z,99.90
2022-07-25T02:41:42.080Z,99.90
2022-07-25T02:44:09.262Z,99.90
2022-07-25T02:46:37.014Z,99.90
2022-07-25T02:49:03.987Z,99.90
2022-07-25T02:51:30.891Z,99.90
2022-07-25T02:53:58.890Z,99.90
2022-07-25T02:56:29.829Z,99.90
2022-07-25T02:58:57.586Z,99.90
2022-07-25T03:01:24.649Z,99.90
2022-07-25T03:03:51.694Z,99.90
2022-07-25T03:06:18.736Z,99.90
2022-07-25T03:08:45.539Z,99.90
2022-07-25T03:11:13.595Z,99.90
2022-07-25T03:13:40.454Z,99.90
2022-07-25T03:16:07.884Z,99.90
2022-07-25T03:18:34.750Z,99.90
2022-07-25T03:21:01.662Z,99.90
2022-07-25T03:23:28.617Z,99.90
2022-07-25T03:25:56.155Z,99.90
2022-07-25T03:28:24.734Z,99.90
2022-07-25T03:30:52.607Z,99.90
2022-07-25T03:33:19.457Z,99.90
2022-07-25T03:35:46.609Z,99.90
2022-07-25T03:38:13.461Z,99.90
2022-07-25T03:40:40.346Z,99.90
2022-07-25T03:43:07.269Z,99.90
2022-07-25T03:45:34.151Z,99.90
2022-07-25T03:48:01.127Z,99.90
2022-07-25T03:50:28.360Z,99.90
2022-07-25T03:52:55.207Z,99.90
2022-07-25T03:55:22.214Z,99.90
2022-07-25T03:57:49.028Z,99.90
2022-07-25T04:00:16.064Z,99.90
2022-07-25T04:02:43.048Z,99.90
2022-07-25T04:05:10.722Z,99.90
2022-07-25T04:07:38.212Z,99.90
2022-07-25T04:10:06.283Z,99.90
2022-07-25T04:12:33.439Z,99.90
2022-07-25T04:15:00.370Z,99.90
2022-07-25T04:17:27.224Z,99.90
2022-07-25T04:19:54.268Z,99.90
2022-07-25T04:22:22.515Z,99.90
2022-07-25T04:24:49.382Z,99.90
2022-07-25T04:27:16.753Z,99.90
2022-07-25T04:29:43.575Z,99.90
2022-07-25T04:32:10.474Z,99.90
2022-07-25T04:34:37.439Z,99.90
2022-07-25T04:37:04.240Z,99.90
2022-07-25T04:39:31.089Z,99.90
2022-07-25T04:41:57.908Z,99.90
2022-07-25T04:44:24.712Z,99.90
2022-07-25T04:46:51.565Z,99.90
2022-07-25T04:49:18.503Z,99.90
2022-07-25T04:51:46.187Z,99.90
2022-07-25T04:54:14.592Z,99.90
2022-07-25T04:56:41.517Z,99.90
2022-07-25T04:59:08.338Z,99.90
2022-07-25T05:01:35.548Z,99.90
2022-07-25T05:04:02.591Z,99.90
2022-07-25T05:06:29.601Z,99.90
2022-07-25T05:08:56.516Z,99.90
2022-07-25T05:11:23.350Z,99.90
2022-07-25T05:13:50.219Z,99.90
2022-07-25T05:16:17.177Z,99.90
2022-07-25T05:18:44.011Z,99.90
2022-07-25T05:21:12.465Z,99.90
2022-07-25T05:23:39.896Z,99.90
2022-07-25T05:26:06.927Z,99.90
2022-07-25T05:28:34.035Z,99.90
2022-07-25T05:31:01.125Z,99.90
2022-07-25T05:33:28.052Z,99.90
2022-07-25T05:35:54.892Z,99.90
2022-07-25T05:38:21.880Z,99.90
2022-07-25T05:40:49.256Z,99.90
2022-07-25T05:43:16.128Z,99.90
2022-07-25T05:45:43.267Z,99.90
2022-07-25T05:48:10.188Z,99.90
2022-07-25T05:50:37.555Z,99.90
2022-07-25T05:53:04.452Z,99.90
2022-07-25T05:55:31.320Z,99.90
2022-07-25T05:57:58.303Z,99.90
2022-07-25T06:00:25.470Z,99.90
2022-07-25T06:02:52.451Z,99.90
2022-07-25T06:05:19.420Z,99.90
2022-07-25T06:07:46.308Z,99.90
2022-07-25T06:10:13.142Z,99.90
2022-07-25T06:12:39.943Z,99.90
2022-07-25T06:15:07.955Z,99.90
2022-07-25T06:17:39.538Z,99.90
2022-07-25T06:20:07.539Z,99.90
2022-07-25T06:22:34.418Z,99.90
2022-07-25T06:25:04.555Z,99.90
2022-07-25T06:27:31.572Z,99.90
2022-07-25T06:29:58.495Z,99.90
2022-07-25T06:32:25.343Z,99.90
2022-07-25T06:34:52.187Z,99.90
2022-07-25T06:37:19.021Z,99.90
2022-07-25T06:39:46.287Z,99.90
2022-07-25T06:42:13.218Z,99.90
2022-07-25T06:44:40.508Z,99.90
2022-07-25T06:47:12.610Z,99.90
2022-07-25T06:49:42.992Z,99.90
2022-07-25T06:52:10.175Z,99.90
2022-07-25T06:54:37.114Z,99.90
2022-07-25T06:57:04.675Z,99.90
2022-07-25T06:59:31.686Z,99.90
2022-07-25T07:01:58.556Z,99.90
2022-07-25T07:04:25.403Z,99.90
2022-07-25T07:06:52.403Z,99.90
2022-07-25T07:09:19.242Z,99.90
2022-07-25T07:11:46.049Z,99.90
2022-07-25T07:14:12.862Z,99.90
2022-07-25T07:16:41.411Z,99.90
2022-07-25T07:19:11.061Z,99.90
2022-07-25T07:21:38.107Z,99.90
2022-07-25T07:24:05.253Z,99.90
2022-07-25T07:26:50.434Z,99.90
2022-07-25T07:29:17.267Z,99.90
2022-07-25T07:31:44.152Z,99.90
2022-07-25T07:34:11.484Z,99.90
2022-07-25T07:36:43.022Z,99.90
2022-07-25T07:39:09.958Z,99.90
2022-07-25T07:41:36.971Z,99.90
2022-07-25T07:44:05.055Z,99.90
2022-07-25T07:46:31.957Z,99.90
2022-07-25T07:48:58.931Z,99.90
2022-07-25T07:51:25.768Z,99.90
2022-07-25T07:54:11.357Z,99.90
2022-07-25T07:56:39.497Z,99.90
2022-07-25T07:59:06.512Z,99.90
2022-07-25T08:01:34.318Z,99.90
2022-07-25T08:04:01.166Z,99.90
2022-07-25T08:06:28.034Z,99.90
2022-07-25T08:08:55.265Z,99.90
2022-07-25T08:11:22.137Z,99.90
2022-07-25T08:13:48.943Z,99.90
2022-07-25T08:16:16.197Z,99.90
2022-07-25T08:18:43.092Z,99.90
2022-07-25T08:21:10.973Z,99.90
2022-07-25T08:23:40.801Z,99.90
2022-07-25T08:26:07.894Z,99.90
2022-07-25T08:28:34.694Z,99.90
2022-07-25T08:31:01.715Z,99.90
2022-07-25T08:33:29.094Z,99.90
2022-07-25T08:35:56.483Z,99.90
2022-07-25T08:38:25.401Z,99.90
2022-07-25T08:40:54.533Z,99.90
2022-07-25T08:43:22.305Z,99.90
2022-07-25T08:45:51.903Z,99.90
2022-07-25T08:48:20.831Z,99.90
2022-07-25T08:50:49.030Z,99.90
2022-07-25T08:53:35.319Z,99.90
2022-07-25T08:56:11.587Z,99.90
2022-07-25T08:58:39.862Z,99.90
2022-07-25T09:01:08.086Z,99.90
2022-07-25T09:03:36.371Z,99.90
2022-07-25T09:06:17.732Z,99.90
2022-07-25T09:08:59.544Z,99.90
2022-07-25T09:11:27.618Z,99.90
2022-07-25T09:14:07.452Z,99.90
2022-07-25T09:16:41.077Z,99.90
2022-07-25T09:19:13.813Z,99.90
2022-07-25T09:21:42.877Z,99.90
2022-07-25T09:24:12.383Z,97.60
2022-07-25T09:26:48.538Z,96.20
2022-07-25T09:29:34.135Z,95.70
2022-07-25T09:32:02.592Z,93.60
2022-07-25T09:34:40.905Z,93.90
2022-07-25T09:37:09.476Z,91.60
2022-07-25T09:39:47.001Z,90.90
2022-07-25T09:42:32.248Z,91.00
2022-07-25T09:45:06.639Z,89.30
2022-07-25T09:47:36.876Z,89.60
2022-07-25T09:50:05.754Z,86.80
2022-07-25T09:52:33.818Z,85.00
2022-07-25T09:55:04.486Z,84.90
2022-07-25T09:57:31.337Z,78.00
2022-07-25T10:00:00.521Z,78.30
2022-07-25T10:02:39.668Z,79.60
2022-07-25T10:05:06.563Z,76.70
2022-07-25T10:07:38.722Z,76.90
2022-07-25T10:10:06.566Z,76.70
2022-07-25T10:12:33.679Z,76.20
2022-07-25T10:15:12.239Z,73.10
2022-07-25T10:17:40.909Z,70.70
2022-07-25T10:20:11.225Z,72.00
2022-07-25T10:22:56.302Z,69.60
2022-07-25T10:25:24.261Z,70.30
2022-07-25T10:27:59.962Z,68.90
2022-07-25T10:30:37.513Z,70.70
2022-07-25T10:33:17.761Z,66.10
2022-07-25T10:35:45.515Z,62.20
2022-07-25T10:38:12.893Z,63.00
2022-07-25T10:40:45.113Z,62.00
2022-07-25T10:43:15.237Z,61.40
2022-07-25T10:45:52.239Z,61.90
2022-07-25T10:48:30.610Z,63.90
2022-07-25T10:50:57.554Z,63.30
2022-07-25T10:53:31.716Z,60.30
2022-07-25T10:56:06.958Z,59.60
2022-07-25T10:58:43.499Z,59.10
2022-07-25T11:01:10.631Z,58.10
2022-07-25T11:03:37.528Z,56.80
2022-07-25T11:06:04.495Z,55.70
2022-07-25T11:08:35.848Z,56.90
2022-07-25T11:11:03.248Z,55.70
2022-07-25T11:13:30.257Z,58.30
2022-07-25T11:15:58.737Z,56.90
2022-07-25T11:18:37.784Z,55.80
2022-07-25T11:21:08.919Z,57.30
2022-07-25T11:23:36.472Z,58.20
2022-07-25T11:26:12.142Z,56.70
2022-07-25T11:28:44.744Z,55.50
2022-07-25T11:31:13.462Z,54.10
2022-07-25T11:33:43.570Z,53.00
2022-07-25T11:36:12.205Z,52.50
2022-07-25T11:38:40.528Z,52.30
2022-07-25T11:41:08.357Z,50.90
2022-07-25T11:43:35.256Z,49.70
2022-07-25T11:46:07.245Z,49.40
2022-07-25T11:48:37.173Z,49.10
2022-07-25T11:51:17.987Z,50.00
2022-07-25T11:53:48.250Z,48.40
2022-07-25T11:56:40.691Z,48.40
2022-07-25T11:59:04.738Z,48.50
2022-07-25T12:01:37.654Z,48.10
2022-07-25T12:04:20.227Z,49.50
2022-07-25T12:06:50.844Z,49.00
2022-07-25T12:09:19.731Z,48.10
2022-07-25T12:11:48.303Z,48.30
2022-07-25T12:14:15.577Z,48.80
2022-07-25T12:16:42.859Z,50.30
2022-07-25T12:19:19.019Z,48.40
2022-07-25T12:21:46.146Z,49.20
2022-07-25T12:24:13.236Z,48.50
2022-07-25T12:26:40.098Z,48.60
2022-07-25T12:29:07.252Z,49.70
2022-07-25T12:31:34.674Z,48.90
2022-07-25T12:34:01.572Z,48.60
2022-07-25T12:36:28.578Z,50.10
2022-07-25T12:38:55.392Z,47.60
2022-07-25T12:41:23.644Z,47.80
2022-07-25T12:43:50.525Z,46.70
2022-07-25T12:46:17.581Z,45.70
2022-07-25T12:48:44.739Z,47.50
2022-07-25T12:51:11.621Z,47.40
2022-07-25T12:53:42.237Z,47.70
2022-07-25T12:56:09.738Z,47.50
2022-07-25T12:58:37.497Z,47.20
2022-07-25T13:01:05.887Z,47.30
2022-07-25T13:03:32.849Z,47.10
2022-07-25T13:05:59.758Z,46.50
2022-07-25T13:08:27.541Z,46.30
2022-07-25T13:10:54.486Z,46.90
2022-07-25T13:13:21.315Z,48.80
2022-07-25T13:15:48.135Z,46.80
2022-07-25T13:18:15.029Z,47.40
2022-07-25T13:20:41.913Z,46.50
2022-07-25T13:23:08.763Z,46.80
2022-07-25T13:25:36.505Z,46.80
2022-07-25T13:28:04.361Z,46.00
2022-07-25T13:30:38.003Z,46.70
2022-07-25T13:33:04.976Z,46.80
2022-07-25T13:35:38.552Z,46.80
2022-07-25T13:38:08.656Z,44.70
2022-07-25T13:40:37.410Z,47.20
2022-07-25T13:43:04.216Z,47.10
2022-07-25T13:45:31.439Z,46.10
2022-07-25T13:48:26.829Z,45.10
2022-07-25T13:50:45.260Z,44.70
2022-07-25T13:53:12.105Z,47.10
2022-07-25T13:55:39.386Z,45.90
2022-07-25T13:58:06.545Z,47.30
2022-07-25T14:00:33.615Z,45.00
2022-07-25T14:03:00.625Z,46.10
2022-07-25T14:05:27.666Z,46.00
2022-07-25T14:07:54.612Z,45.30
2022-07-25T14:10:21.436Z,45.00
2022-07-25T14:12:48.502Z,46.00
2022-07-25T14:15:15.381Z,46.60
2022-07-25T14:17:42.281Z,45.10
2022-07-25T14:20:09.921Z,42.60
2022-07-25T14:22:36.959Z,43.20
2022-07-25T14:25:04.165Z,43.00
2022-07-25T14:27:31.033Z,44.40
2022-07-25T14:29:57.846Z,44.40
2022-07-25T14:32:24.673Z,44.20
2022-07-25T14:34:52.643Z,43.20
2022-07-25T14:37:20.838Z,44.40
2022-07-25T14:39:48.300Z,44.60
2022-07-25T14:42:15.326Z,44.20
2022-07-25T14:44:42.186Z,44.50
2022-07-25T14:47:12.630Z,44.60
2022-07-25T14:49:41.106Z,44.50
2022-07-25T14:52:08.027Z,44.50
2022-07-25T14:54:34.946Z,45.20
2022-07-25T14:57:02.606Z,44.70
2022-07-25T14:59:29.570Z,45.20
2022-07-25T15:01:56.865Z,45.70
2022-07-25T15:04:25.256Z,45.50
2022-07-25T15:06:55.535Z,45.50
2022-07-25T15:09:22.577Z,46.30
2022-07-25T15:11:49.630Z,46.20
2022-07-25T15:14:16.511Z,46.40
2022-07-25T15:16:43.930Z,45.50
2022-07-25T15:19:16.423Z,46.20
2022-07-25T15:21:44.598Z,47.10
2022-07-25T15:24:11.833Z,46.30
2022-07-25T15:26:38.790Z,47.70
2022-07-25T15:29:10.451Z,48.40
2022-07-25T15:31:38.165Z,47.80
2022-07-25T15:34:05.112Z,48.40
2022-07-25T15:36:31.982Z,49.10
2022-07-25T15:38:58.814Z,48.60
2022-07-25T15:41:26.745Z,48.00
2022-07-25T15:43:53.772Z,48.20
2022-07-25T15:46:20.730Z,49.80
2022-07-25T15:48:48.996Z,50.50
2022-07-25T15:51:19.553Z,49.30
2022-07-25T15:53:46.551Z,49.20
2022-07-25T15:56:16.595Z,48.70
2022-07-25T15:58:44.181Z,48.70
2022-07-25T16:01:11.063Z,49.70
2022-07-25T16:03:38.395Z,49.50
2022-07-25T16:06:05.353Z,49.50
2022-07-25T16:08:32.465Z,49.40
2022-07-25T16:11:00.147Z,50.00
2022-07-25T16:13:27.225Z,49.60
2022-07-25T16:15:54.213Z,51.20
2022-07-25T16:18:21.330Z,50.40
2022-07-25T16:20:48.507Z,50.10
2022-07-25T16:23:15.636Z,51.90
2022-07-25T16:25:43.758Z,52.30
2022-07-25T16:28:10.712Z,50.70
2022-07-25T16:30:37.596Z,50.30
2022-07-25T16:33:04.510Z,51.60
2022-07-25T16:35:32.461Z,50.30
2022-07-25T16:37:59.346Z,50.80
2022-07-25T16:40:30.751Z,50.80
2022-07-25T16:42:58.845Z,51.30
2022-07-25T16:45:26.957Z,51.50
2022-07-25T16:47:54.931Z,50.30
2022-07-25T16:50:21.864Z,49.90
2022-07-25T16:52:48.770Z,51.50
2022-07-25T16:55:15.682Z,51.50
2022-07-25T16:57:42.624Z,50.40
2022-07-25T17:00:10.028Z,50.30
2022-07-25T17:02:36.950Z,50.30
2022-07-25T17:05:04.539Z,50.30
2022-07-25T17:09:59.291Z,51.70
2022-07-25T17:12:26.336Z,50.60
2022-07-25T17:14:53.911Z,50.80
2022-07-25T17:17:20.764Z,51.70
2022-07-25T17:19:47.706Z,53.20
2022-07-25T17:22:14.853Z,52.60
2022-07-25T17:24:42.041Z,55.00
2022-07-25T17:27:09.416Z,52.80
2022-07-25T17:29:36.824Z,53.80
2022-07-25T17:32:06.026Z,53.80
2022-07-25T17:34:33.118Z,53.40
2022-07-25T17:37:03.274Z,52.00
2022-07-25T17:39:30.854Z,52.30
2022-07-25T17:41:57.699Z,54.20
2022-07-25T17:44:25.145Z,54.50
2022-07-25T17:46:53.666Z,53.80
2022-07-25T17:49:21.769Z,52.90
2022-07-25T17:51:48.749Z,53.40
2022-07-25T17:54:15.753Z,54.00
2022-07-25T17:56:42.607Z,54.60
2022-07-25T17:59:09.411Z,53.90
2022-07-25T18:01:36.296Z,53.90
2022-07-25T18:04:03.920Z,55.20
2022-07-25T18:06:30.987Z,55.90
2022-07-25T18:08:58.183Z,56.80
2022-07-25T18:11:25.080Z,58.60
2022-07-25T18:13:51.880Z,59.80
2022-07-25T18:16:18.838Z,61.20
2022-07-25T18:18:45.740Z,61.80
2022-07-25T18:21:12.588Z,62.00
2022-07-25T18:23:39.421Z,61.70
2022-07-25T18:26:06.356Z,63.50
2022-07-25T18:28:33.199Z,62.80
2022-07-25T18:31:00.203Z,64.20
2022-07-25T18:33:27.136Z,64.50
2022-07-25T18:35:54.028Z,65.60
2022-07-25T18:38:20.841Z,65.90
2022-07-25T18:40:49.443Z,65.10
2022-07-25T18:43:16.408Z,65.10
2022-07-25T18:45:43.403Z,66.00
2022-07-25T18:48:11.583Z,66.20
2022-07-25T18:50:38.404Z,66.40
2022-07-25T18:53:05.429Z,66.90
2022-07-25T18:55:32.448Z,66.60
2022-07-25T18:57:59.291Z,67.60
2022-07-25T19:00:26.214Z,68.20
2022-07-25T19:02:53.005Z,67.90
2022-07-25T19:05:20.292Z,69.10
2022-07-25T19:07:47.264Z,69.30
2022-07-25T19:10:14.436Z,69.70
2022-07-25T19:12:41.428Z,69.40
2022-07-25T19:15:08.720Z,69.30
2022-07-25T19:17:37.105Z,69.70
2022-07-25T19:20:05.085Z,70.00
2022-07-25T19:22:31.959Z,70.10
2022-07-25T19:25:01.120Z,70.10
2022-07-25T19:27:28.891Z,70.10
2022-07-25T19:29:56.109Z,70.70
2022-07-25T19:32:23.082Z,71.20
2022-07-25T19:34:49.983Z,70.70
2022-07-25T19:37:16.933Z,71.80
2022-07-25T19:39:43.904Z,71.90
2022-07-25T19:42:12.327Z,73.10
2022-07-25T19:44:39.163Z,75.00
2022-07-25T19:47:09.860Z,73.90
2022-07-25T19:49:39.674Z,73.70
2022-07-25T19:52:07.657Z,74.60
2022-07-25T19:54:34.599Z,74.80
2022-07-25T19:57:02.314Z,75.30
2022-07-25T19:59:29.128Z,76.00
2022-07-25T20:01:55.975Z,76.00
2022-07-25T20:04:23.249Z,76.40
2022-07-25T20:06:50.779Z,77.60
2022-07-25T20:09:18.281Z,78.80
2022-07-25T20:11:45.437Z,79.80
2022-07-25T20:14:12.373Z,80.10
2022-07-25T20:16:40.004Z,81.30
2022-07-25T20:19:09.599Z,81.40
2022-07-25T20:21:38.249Z,81.80
2022-07-25T20:24:05.368Z,82.20
2022-07-25T20:26:32.294Z,83.30
2022-07-25T20:28:59.134Z,84.80
2022-07-25T20:31:26.132Z,86.20
2022-07-25T20:33:53.299Z,88.20
2022-07-25T20:36:20.437Z,89.20
2022-07-25T20:38:47.432Z,90.60
2022-07-25T20:41:15.370Z,91.20
2022-07-25T20:43:42.398Z,91.60
2022-07-25T20:46:09.601Z,92.90
2022-07-25T20:48:36.755Z,94.90
2022-07-25T20:51:03.971Z,97.30
2022-07-25T20:53:30.966Z,99.90
2022-07-25T20:55:58.455Z,99.90
2022-07-25T20:58:25.330Z,99.90
2022-07-25T21:00:52.337Z,99.90
2022-07-25T21:03:19.282Z,99.90
2022-07-25T21:05:46.277Z,99.90
2022-07-25T21:08:13.109Z,99.90
2022-07-25T21:10:39.923Z,99.90
2022-07-25T21:13:07.117Z,99.90
2022-07-25T21:15:34.821Z,99.90
2022-07-25T21:18:01.660Z,99.90
2022-07-25T21:20:28.681Z,99.90
2022-07-25T21:22:55.559Z,99.90
2022-07-25T21:25:22.632Z,99.90
2022-07-25T21:27:52.797Z,99.90
2022-07-25T21:30:19.731Z,99.90
2022-07-25T21:32:46.619Z,99.90
2022-07-25T21:35:13.470Z,99.90
2022-07-25T21:37:40.476Z,99.90
2022-07-25T21:40:08.132Z,99.90
2022-07-25T21:42:36.335Z,99.90
2022-07-25T21:45:03.550Z,99.90
2022-07-25T21:47:30.473Z,99.90
2022-07-25T21:50:24.150Z,99.90
2022-07-25T21:52:51.903Z,99.90
2022-07-25T21:55:18.795Z,99.90
2022-07-25T21:57:45.581Z,99.90
2022-07-25T22:00:13.371Z,99.90
2022-07-25T22:02:42.352Z,99.90
2022-07-25T22:05:10.005Z,99.90
2022-07-25T22:07:36.945Z,99.90
2022-07-25T22:10:07.633Z,99.90
2022-07-25T22:12:34.456Z,99.90
2022-07-25T22:15:01.329Z,99.90
2022-07-25T22:17:28.166Z,99.90
2022-07-25T22:20:15.021Z,99.90
2022-07-25T22:22:41.940Z,99.90
2022-07-25T22:25:09.320Z,99.90
2022-07-25T22:27:36.199Z,99.90
2022-07-25T22:30:04.050Z,99.90
2022-07-25T22:32:30.911Z,99.90
2022-07-25T22:34:57.749Z,99.90
2022-07-25T22:37:24.560Z,99.90
2022-07-25T22:39:51.918Z,99.90
2022-07-25T22:42:23.403Z,99.90
2022-07-25T22:44:50.229Z,99.90
2022-07-25T22:47:17.017Z,99.90
2022-07-25T22:49:43.799Z,99.90
2022-07-25T22:52:10.610Z,99.90
2022-07-25T22:54:37.562Z,99.90
2022-07-25T22:57:04.552Z,99.90
2022-07-25T22:59:31.421Z,99.90
2022-07-25T23:01:58.214Z,99.90
2022-07-25T23:04:25.068Z,99.90
2022-07-25T23:09:36.486Z,99.90
2022-07-25T23:12:05.307Z,99.90
2022-07-25T23:14:32.157Z,99.90
2022-07-25T23:17:17.021Z,99.90
2022-07-25T23:19:55.005Z,99.90
2022-07-25T23:22:23.763Z,99.90
2022-07-25T23:24:50.595Z,99.90
2022-07-25T23:27:17.786Z,99.90
2022-07-25T23:29:44.867Z,99.90
2022-07-25T23:32:11.802Z,99.90
2022-07-25T23:34:38.957Z,99.90
2022-07-25T23:37:05.846Z,99.90
2022-07-25T23:39:33.474Z,99.90
2022-07-25T23:42:00.788Z,99.90
2022-07-25T23:44:27.661Z,99.90
2022-07-25T23:46:56.741Z,99.90
2022-07-25T23:49:24.243Z,99.90
2022-07-25T23:51:51.162Z,99.90
2022-07-25T23:54:18.070Z,99.90
2022-07-25T23:56:44.870Z,99.90
2022-07-25T23:59:11.821Z,99.90
